Spaceon02064 — ASD — position and weather

sailwx.info

Track history (hours):
 
Tides and Currents Weather Stations Pressure Air Temp Water Temp Dewpoint Dewpoint Depression Visibility Wind Speed Wind Dir Waves Ship Positions

Spaceon02064

Last reported at 2014-Oct-31 20:23 UTC. Time now 2014-Oct-31 20:46 UTC.
Position N 30°01' E 121°56'.

Length 6 m.

Type: Ship. MMSI: 200902064.

Date/timePositionNaut miles runAvg speedWind from/ knotsBaromVisibWave heightAir tempDewpointWater temp
2014-Oct-31 20:23N 30°01' E 121°56'462234.8
2014-Oct-31 18:25N 37°42' E 121°09'5 5.7
2014-Oct-31 17:33N 37°43' E 121°15'3 3.1
2014-Oct-31 16:33N 37°42' E 121°19'2 2.2
2014-Oct-31 15:27N 37°43' E 121°16'2 1.9
2014-Oct-31 14:31N 37°43' E 121°18'3 3.0
2014-Oct-31 13:33N 37°42' E 121°21'346916.9
2014-Oct-31 13:11N 31°59' E 120°27'345539.8
2014-Oct-31 12:32N 37°41' E 121°25'34669138.8
2014-Oct-31 12:32N 31°59' E 120°26'346353.4
2014-Oct-31 11:33N 37°41' E 121°28'4 3.8
2014-Oct-31 10:33N 37°41' E 121°24'4 3.8
2014-Oct-31 09:27N 37°42' E 121°18'8 8.0
2014-Oct-31 08:30N 37°42' E 121°09'782379.2
2014-Oct-31 06:27N 24°48' E 118°54'8 7.6
2014-Oct-31 05:25N 24°47' E 118°46'0 0.0
2014-Oct-31 04:33N 24°47' E 118°46'3571038.0
2014-Oct-31 04:12N 30°01' E 121°56'357543.3
2014-Oct-31 03:33N 24°47' E 118°46'0 0.0
2014-Oct-31 02:19N 24°47' E 118°46'0 0.0
2014-Oct-31 01:13N 24°47' E 118°46'785736.1
2014-Oct-31 00:09N 37°42' E 121°09'0 0.0
2014-Oct-30 23:27N 37°42' E 121°09'7853342.3
2014-Oct-30 23:13N 24°47' E 118°46'7851179.2
2014-Oct-30 22:33N 37°42' E 121°09'2 1.6
2014-Oct-30 21:33N 37°42' E 121°11'4 4.1
2014-Oct-30 20:33N 37°42' E 121°16'7865763.0
2014-Oct-30 20:25N 24°47' E 118°46'4135128.2
2014-Oct-30 20:20N 31°14' E 121°30'388501.1
2014-Oct-30 19:33N 37°42' E 121°21'7863209.2
2014-Oct-30 19:19N 24°47' E 118°46'7871042.5
2014-Oct-30 18:33N 37°41' E 121°26'381114428.1
2014-Oct-30 18:33N 31°20' E 121°33'381382.8
2014-Oct-30 17:34N 37°41' E 121°30'37997397.5
2014-Oct-30 17:33N 31°23' E 121°30'42210050.6
2014-Oct-30 17:31N 24°47' E 118°46'787823.9
2014-Oct-30 16:33N 37°42' E 121°26'376135326.3
2014-Oct-30 16:33N 31°26' E 121°29'4241358.8
2014-Oct-30 16:15N 24°47' E 118°46'7861134.0
2014-Oct-30 15:33N 37°42' E 121°21'2 2.1
2014-Oct-30 14:32N 37°41' E 121°19'3481954.5
2014-Oct-30 14:21N 31°58' E 120°04'4 5.5
2014-Oct-30 13:33N 31°57' E 120°09'3481252480.5
2014-Oct-30 13:33N 37°40' E 121°22'3 3.1
2014-Oct-30 12:33N 37°39' E 121°26'34783251.4
2014-Oct-30 12:33N 31°57' E 120°16'347348.0
2014-Oct-30 11:33N 37°38' E 121°30'343137162.0
2014-Oct-30 11:33N 31°60' E 120°23'343344.3
2014-Oct-30 10:33N 37°39' E 121°26'34038252.7
2014-Oct-30 10:33N 32°02' E 120°29'7 6.7
2014-Oct-30 09:33N 32°00' E 120°37'3411229156.2
2014-Oct-30 09:33N 37°40' E 121°22'340338.6
2014-Oct-30 08:33N 32°01' E 120°45'3404226.4
2014-Oct-30 08:28N 37°40' E 121°19'78532846.5
2014-Oct-30 08:27N 24°47' E 118°46'447490.8
2014-Oct-30 07:32N 32°01' E 120°49'34124533.3
2014-Oct-30 07:31N 37°40' E 121°19'341345.7
2014-Oct-30 06:32N 32°01' E 120°49'4474984.1
2014-Oct-30 06:27N 24°47' E 118°46'447501.7
2014-Oct-30 05:33N 32°01' E 120°49'44753661.4
2014-Oct-30 05:33N 24°47' E 118°46'447451.7
2014-Oct-30 04:33N 32°01' E 120°49'4474055.1
2014-Oct-30 04:27N 24°47' E 118°46'447498.1
2014-Oct-30 03:33N 32°01' E 120°49'348952.2
2014-Oct-30 03:11N 37°48' E 121°11'348541.6
2014-Oct-30 02:33N 32°01' E 120°49'34113968.3
2014-Oct-30 02:31N 37°42' E 121°09'341347.3
2014-Oct-30 01:32N 32°01' E 120°49'1 0.7
2014-Oct-30 00:33N 32°00' E 120°49'343274.0
2014-Oct-29 23:18N 37°43' E 121°11'810.2
2014-Oct-29 22:33N 37°47' E 121°19'360339.5
2014-Oct-29 21:29N 31°47' E 121°01'3641225.5
2014-Oct-29 21:12N 37°50' E 121°27'367571.3
2014-Oct-29 20:33N 31°43' E 121°08'367364.2
2014-Oct-29 19:33N 37°50' E 121°35'37223474.2
2014-Oct-29 19:32N 31°39' E 121°14'372362.9
2014-Oct-29 18:30N 37°51' E 121°36'396387.3
2014-Oct-29 17:29N 31°14' E 121°29'3961971.5
2014-Oct-29 17:17N 37°51' E 121°36'384405.2
2014-Oct-29 16:20N 31°27' E 121°29'6 7.0
2014-Oct-29 15:29N 31°21' E 121°31'388383.2
2014-Oct-29 14:29N 37°49' E 121°41'3838104.4
2014-Oct-29 14:26N 31°26' E 121°29'374387.8
2014-Oct-29 13:28N 37°40' E 121°38'2 1.6
2014-Oct-29 12:30N 37°40' E 121°40'3621235.6
2014-Oct-29 12:13N 31°39' E 121°14'6 7.0
2014-Oct-29 11:22N 31°42' E 121°08'26122.7
2014-Oct-29 11:09N 31°24' E 121°31'3765009.2
2014-Oct-29 11:05N 37°40' E 121°42'2 3.1
2014-Oct-29 10:33N 37°39' E 121°40'3751923.1
2014-Oct-29 10:21N 31°24' E 121°31'375466.2
2014-Oct-29 09:33N 37°40' E 121°35'4 3.5
2014-Oct-29 08:33N 37°41' E 121°31'4 3.6
2014-Oct-29 07:33N 37°41' E 121°26'4 3.7
2014-Oct-29 06:33N 37°41' E 121°22'37713438.7
2014-Oct-29 06:31N 31°24' E 121°31'4232460.3
2014-Oct-29 06:21N 24°47' E 118°46'420528.3
2014-Oct-29 05:33N 31°22' E 121°28'380273954.5
2014-Oct-29 05:33N 37°42' E 121°13'381381.1
2014-Oct-29 04:33N 31°22' E 121°28'0 0.0
2014-Oct-29 03:33N 31°22' E 121°28'0 0.0
2014-Oct-29 02:33N 31°22' E 121°28'56151.2
2014-Oct-29 02:11N 31°60' E 120°39'5689.4
2014-Oct-29 01:33N 31°22' E 121°28'614479.0
2014-Oct-29 01:33N 32°01' E 120°33'6161.8
2014-Oct-29 00:33N 31°22' E 121°28'64114665.6
2014-Oct-29 00:33N 31°59' E 120°27'6463.8
2014-Oct-28 23:33N 31°22' E 121°28'381788.5
2014-Oct-28 23:04N 37°42' E 121°11'381736.0
2014-Oct-28 22:33N 31°22' E 121°28'38125913.1
2014-Oct-28 22:33N 37°43' E 121°15'381380.5
2014-Oct-28 21:32N 31°22' E 121°28'38042789.0
2014-Oct-28 21:32N 37°42' E 121°16'4 4.1
2014-Oct-28 20:33N 37°41' E 121°21'37991012.7
2014-Oct-28 20:33N 31°22' E 121°28'0 0.0
2014-Oct-28 19:33N 31°22' E 121°28'37840046.6
2014-Oct-28 19:33N 37°40' E 121°26'4 4.1
2014-Oct-28 18:33N 37°39' E 121°31'37823844.9
2014-Oct-28 18:32N 31°22' E 121°28'0 0.0
2014-Oct-28 17:33N 31°22' E 121°28'377271709.4
2014-Oct-28 17:33N 37°39' E 121°36'3 3.4
2014-Oct-28 16:33N 37°40' E 121°32'37937857.3
2014-Oct-28 16:33N 31°22' E 121°28'0 0.0
2014-Oct-28 15:33N 31°22' E 121°28'3851223.5
2014-Oct-28 15:14N 37°47' E 121°30'385567.0
2014-Oct-28 14:33N 31°22' E 121°28'38699221.1
2014-Oct-28 14:33N 37°47' E 121°28'386387.6
2014-Oct-28 13:33N 31°22' E 121°28'0 0.0
2014-Oct-28 12:33N 31°22' E 121°28'0 0.0
2014-Oct-28 11:33N 31°22' E 121°28'0 0.1
2014-Oct-28 10:32N 31°22' E 121°28'0 0.0
2014-Oct-28 09:33N 31°22' E 121°28'77470.9
2014-Oct-28 09:24N 31°57' E 120°08'7791.9
2014-Oct-28 08:33N 31°22' E 121°28'724693.5
2014-Oct-28 08:32N 31°57' E 120°14'7272.8
2014-Oct-28 07:33N 31°22' E 121°28'68122621.9
2014-Oct-28 07:33N 31°58' E 120°20'3593263.0
2014-Oct-28 07:27N 37°53' E 121°20'392440.6
2014-Oct-28 06:33N 31°22' E 121°28'65117705.8
2014-Oct-28 06:33N 31°58' E 120°24'357931.6
2014-Oct-28 06:10N 37°53' E 121°18'392635.4
2014-Oct-28 05:33N 31°22' E 121°28'0 0.0
2014-Oct-28 04:33N 31°22' E 121°28'3891192.6
2014-Oct-28 04:14N 37°50' E 121°18'389567.6
2014-Oct-28 03:33N 31°22' E 121°28'4211.7
2014-Oct-28 03:32N 31°21' E 121°32'3844420.3
2014-Oct-28 03:26N 37°45' E 121°12'383434.2
2014-Oct-28 02:33N 31°22' E 121°28'38026331.2
2014-Oct-28 02:33N 37°42' E 121°09'3451967.7
2014-Oct-28 02:22N 31°58' E 120°27'6478.5
2014-Oct-28 01:33N 31°22' E 121°28'38025834.3
2014-Oct-28 01:33N 37°42' E 121°09'380386.1
2014-Oct-28 00:33N 31°22' E 121°28'38223282.7
2014-Oct-28 00:32N 37°43' E 121°13'382383.5
2014-Oct-27 23:33N 31°22' E 121°28'0 0.0
2014-Oct-27 22:32N 31°22' E 121°28'3831145.2
2014-Oct-27 22:12N 37°44' E 121°15'383579.6
2014-Oct-27 21:33N 31°22' E 121°28'3836793.5
2014-Oct-27 21:29N 37°45' E 121°18'3441460.2
2014-Oct-27 21:15N 32°02' E 120°45'5478.1
2014-Oct-27 20:33N 31°22' E 121°28'38441930.6
2014-Oct-27 20:33N 37°46' E 121°15'4 4.0
2014-Oct-27 19:33N 37°46' E 121°20'384153637.3
2014-Oct-27 19:33N 31°22' E 121°28'384387.5
2014-Oct-27 18:33N 37°45' E 121°25'38417701.5
2014-Oct-27 18:32N 31°22' E 121°28'383391.7
2014-Oct-27 17:33N 37°45' E 121°30'38335361.3
2014-Oct-27 17:33N 31°22' E 121°28'383386.9
2014-Oct-27 16:33N 37°44' E 121°35'38372503.8
2014-Oct-27 16:33N 31°22' E 121°28'0 0.1
2014-Oct-27 15:33N 31°22' E 121°28'38238150.6
2014-Oct-27 15:33N 37°43' E 121°34'3 3.2
2014-Oct-27 14:32N 37°43' E 121°30'382196228.3
2014-Oct-27 14:32N 31°22' E 121°28'0 0.0
2014-Oct-27 13:33N 31°22' E 121°28'382344124.8
2014-Oct-27 13:33N 37°44' E 121°25'4 3.7
2014-Oct-27 12:33N 37°44' E 121°21'38381047.2
2014-Oct-27 12:33N 31°22' E 121°28'0 0.0
2014-Oct-27 11:33N 31°22' E 121°28'3829046.3
2014-Oct-27 11:31N 37°43' E 121°14'382396.4
2014-Oct-27 10:33N 31°22' E 121°28'68287.6
2014-Oct-27 10:19N 31°59' E 120°21'6890.1
2014-Oct-27 09:33N 31°22' E 121°28'641341.7
2014-Oct-27 09:31N 32°02' E 120°29'6467.0
2014-Oct-27 08:33N 31°21' E 121°27'0 0.0
2014-Oct-27 07:32N 31°21' E 121°27'0 0.0
2014-Oct-27 06:33N 31°21' E 121°27'65780.9
2014-Oct-27 06:28N 31°58' E 120°24'7 8.1
2014-Oct-27 05:33N 31°56' E 120°16'709268.3
2014-Oct-27 05:33N 31°21' E 121°26'0 0.0
2014-Oct-27 04:31N 31°21' E 121°26'0 0.1
2014-Oct-27 03:33N 31°21' E 121°26'4171501.3
2014-Oct-27 03:16N 24°46' E 118°54'417576.9
2014-Oct-27 02:33N 31°21' E 121°26'0 0.0
2014-Oct-27 01:33N 31°21' E 121°26'0 0.0
2014-Oct-27 00:33N 31°21' E 121°26'0 0.0
2014-Oct-26 23:29N 31°21' E 121°26'0 0.0
2014-Oct-26 22:32N 31°21' E 121°26'0 0.0
2014-Oct-26 21:27N 31°21' E 121°26'0 0.0
2014-Oct-26 20:30N 31°21' E 121°26'0 0.0
2014-Oct-26 19:33N 31°21' E 121°26'0 0.0
2014-Oct-26 18:27N 31°21' E 121°26'0 0.0
2014-Oct-26 17:31N 31°21' E 121°26'0 0.1
2014-Oct-26 16:33N 31°21' E 121°26'0 0.0
2014-Oct-26 15:28N 31°21' E 121°26'0 0.0
2014-Oct-26 13:30N 31°21' E 121°26'0 0.0
2014-Oct-26 12:33N 31°21' E 121°26'0 0.0
2014-Oct-26 11:32N 31°21' E 121°26'0 0.0
2014-Oct-26 10:23N 31°21' E 121°26'0 0.0
2014-Oct-26 09:29N 31°21' E 121°26'0 0.0
2014-Oct-26 08:31N 31°21' E 121°26'0 0.0
2014-Oct-26 07:31N 31°21' E 121°26'0 0.0
2014-Oct-26 06:33N 31°21' E 121°26'0 0.0
2014-Oct-26 05:33N 31°21' E 121°26'0 0.0
2014-Oct-26 04:33N 31°21' E 121°26'0 0.0
2014-Oct-26 03:32N 31°21' E 121°26'0 0.0
2014-Oct-26 02:24N 31°21' E 121°26'0 0.0
2014-Oct-26 00:33N 31°21' E 121°26'0 0.0
2014-Oct-25 23:33N 31°21' E 121°26'0 0.0
2014-Oct-25 22:33N 31°21' E 121°26'0 0.0
2014-Oct-25 21:22N 31°21' E 121°26'0 0.0
2014-Oct-25 20:33N 31°21' E 121°26'3812126.6
2014-Oct-25 20:23N 37°42' E 121°09'381451.8
2014-Oct-25 19:32N 31°21' E 121°26'3811841.1
2014-Oct-25 19:20N 37°42' E 121°09'381494.5
2014-Oct-25 18:33N 31°21' E 121°26'38165396.7
2014-Oct-25 18:33N 37°42' E 121°14'364887.3
2014-Oct-25 18:08N 31°38' E 121°15'363623.7
2014-Oct-25 17:34N 37°42' E 121°20'38115752.4
2014-Oct-25 17:32N 31°21' E 121°26'379385.2
2014-Oct-25 16:33N 37°40' E 121°25'3798469.5
2014-Oct-25 16:30N 31°21' E 121°26'378395.7
2014-Oct-25 15:33N 37°39' E 121°23'3787603.6
2014-Oct-25 15:30N 31°21' E 121°26'377396.7
2014-Oct-25 14:33N 37°38' E 121°25'3778592.2
2014-Oct-25 14:30N 31°21' E 121°26'376390.2
2014-Oct-25 13:33N 37°37' E 121°27'37612548.6
2014-Oct-25 13:31N 31°21' E 121°26'0 0.0
2014-Oct-25 12:33N 31°21' E 121°26'37667750.6
2014-Oct-25 12:33N 37°37' E 121°27'3471911.8
2014-Oct-25 12:22N 31°57' E 120°03'8096.8
2014-Oct-25 11:33N 31°21' E 121°26'3824914.6
2014-Oct-25 11:28N 37°43' E 121°30'351385.7
2014-Oct-25 10:33N 31°57' E 120°16'70250704.7
2014-Oct-25 10:33N 31°21' E 121°26'38527181.0
2014-Oct-25 10:33N 37°46' E 121°28'351356.9
2014-Oct-25 09:33N 31°58' E 120°25'6476922.8
2014-Oct-25 09:33N 31°21' E 121°26'383275883.8
2014-Oct-25 09:33N 37°44' E 121°26'38124070.8
2014-Oct-25 09:32N 31°23' E 121°37'6 6.2
2014-Oct-25 08:33N 31°22' E 121°30'38276323.6
2014-Oct-25 08:33N 37°44' E 121°24'383275702.5
2014-Oct-25 08:33N 31°21' E 121°26'0 0.0
2014-Oct-25 07:33N 31°21' E 121°26'8456.5
2014-Oct-25 07:32N 31°17' E 121°34'38721117.2
2014-Oct-25 07:31N 37°44' E 121°28'1 0.6
2014-Oct-25 06:33N 37°45' E 121°28'38492113.4
2014-Oct-25 06:33N 31°21' E 121°26'824.7
2014-Oct-25 06:14N 31°17' E 121°34'811.4
2014-Oct-25 05:33N 31°21' E 121°26'38398508.6
2014-Oct-25 05:33N 37°44' E 121°25'3871873.1
2014-Oct-25 05:20N 31°17' E 121°34'7 8.8
2014-Oct-25 04:33N 31°22' E 121°28'3834333.7
2014-Oct-25 04:28N 37°44' E 121°27'3 3.0
2014-Oct-25 03:29N 37°46' E 121°25'3822560.8
2014-Oct-25 03:20N 31°24' E 121°31'384447.0
2014-Oct-25 02:28N 37°48' E 121°24'38451208.0
2014-Oct-25 02:28N 31°24' E 121°31'383418.0
2014-Oct-25 01:33N 37°48' E 121°28'38314085.0
2014-Oct-25 01:31N 31°24' E 121°31'383377.9
2014-Oct-25 00:30N 37°48' E 121°23'3803521.6
2014-Oct-25 00:24N 31°28' E 121°26'378175.7
2014-Oct-24 22:15N 37°46' E 121°09'3695922.7
2014-Oct-24 22:11N 31°37' E 121°15'4 6.4
2014-Oct-24 21:31N 31°40' E 121°12'5 5.4
2014-Oct-24 20:32N 31°43' E 121°07'4 4.0
2014-Oct-24 19:30N 31°45' E 121°02'0 0.1
2014-Oct-24 18:11N 31°46' E 121°02'0 0.1
2014-Oct-24 17:33N 31°46' E 121°02'0 0.1
2014-Oct-24 16:31N 31°46' E 121°02'39186.1
2014-Oct-24 16:19N 31°17' E 121°34'0 0.0
2014-Oct-24 15:29N 31°17' E 121°34'3852054.7
2014-Oct-24 15:17N 37°42' E 121°09'35529738.8
2014-Oct-24 15:17N 31°46' E 120°59'165226.3
2014-Oct-24 14:33N 34°29' E 120°27'19528095.2
2014-Oct-24 14:33N 37°40' E 121°15'8 8.4
2014-Oct-24 13:33N 37°43' E 121°25'1991325.0
2014-Oct-24 13:24N 34°29' E 120°27'152445.9
2014-Oct-24 13:04N 31°58' E 120°50'3 6.2
2014-Oct-24 12:33N 32°00' E 120°47'344247336.3
2014-Oct-24 12:33N 37°42' E 121°28'3 3.4
2014-Oct-24 11:32N 37°42' E 121°32'34546036.8
2014-Oct-24 11:32N 31°60' E 120°39'6 5.9
2014-Oct-24 10:33N 32°01' E 120°33'34682958.5
2014-Oct-24 10:33N 37°43' E 121°32'2011663.2
2014-Oct-24 10:26N 34°29' E 120°28'147168.2
2014-Oct-24 09:33N 32°02' E 120°27'34695711.5
2014-Oct-24 09:33N 37°44' E 121°28'3 3.4
2014-Oct-24 08:33N 37°44' E 121°24'34878305.2
2014-Oct-24 08:33N 31°60' E 120°23'2 1.7
2014-Oct-24 07:33N 31°59' E 120°21'34996577.5
2014-Oct-24 07:33N 37°44' E 121°19'3881773.0
2014-Oct-24 07:20N 31°17' E 121°34'7595.9
2014-Oct-24 06:33N 31°59' E 120°21'34896413.8
2014-Oct-24 06:33N 37°44' E 121°20'348349.4
2014-Oct-24 05:33N 31°59' E 120°22'3469500.7
2014-Oct-24 05:31N 37°42' E 121°12'346358.9
2014-Oct-24 04:33N 31°59' E 120°22'74535.1
2014-Oct-24 04:25N 31°18' E 121°34'7587.2
2014-Oct-24 03:33N 31°58' E 120°19'7 6.6
2014-Oct-24 02:33N 31°56' E 120°11'80178.8
2014-Oct-24 02:06N 31°18' E 121°34'86156.1
2014-Oct-24 01:33N 31°57' E 120°04'3488308.2
2014-Oct-24 01:30N 37°42' E 121°09'0 0.0
2014-Oct-24 00:33N 37°42' E 121°09'0 0.0
2014-Oct-23 23:33N 37°42' E 121°09'0 0.0
2014-Oct-23 22:12N 37°42' E 121°09'5 7.9
2014-Oct-23 21:32N 37°42' E 121°15'38434593.5
2014-Oct-23 21:31N 31°18' E 121°34'383397.2
2014-Oct-23 20:33N 37°41' E 121°19'3835560.9
2014-Oct-23 20:29N 31°18' E 121°34'382410.4
2014-Oct-23 19:33N 37°40' E 121°24'38229279.4
2014-Oct-23 19:32N 31°18' E 121°34'382387.0
2014-Oct-23 18:33N 37°40' E 121°24'3821367.3
2014-Oct-23 18:16N 31°18' E 121°34'383531.8
2014-Oct-23 17:33N 37°40' E 121°24'38320571.8
2014-Oct-23 17:32N 31°18' E 121°34'384390.8
2014-Oct-23 16:33N 37°41' E 121°20'3843097.7
2014-Oct-23 16:26N 31°18' E 121°34'0 0.0
2014-Oct-23 15:33N 31°18' E 121°34'3863461.0
2014-Oct-23 15:26N 37°43' E 121°16'386431.3
2014-Oct-23 14:33N 31°18' E 121°34'3858155.9
2014-Oct-23 14:30N 37°43' E 121°18'3 3.5
2014-Oct-23 13:32N 37°42' E 121°23'3855896.1
2014-Oct-23 13:28N 31°18' E 121°34'385418.8
2014-Oct-23 12:33N 37°42' E 121°27'3 3.2
2014-Oct-23 11:33N 37°42' E 121°31'1 0.6
2014-Oct-23 10:32N 37°42' E 121°31'3 3.3
2014-Oct-23 09:33N 37°39' E 121°31'1 1.2
2014-Oct-23 08:33N 37°40' E 121°31'383382.8
2014-Oct-23 07:33N 31°18' E 121°34'3831378274.1
2014-Oct-23 07:33N 37°40' E 121°31'5 5.3
2014-Oct-23 06:31N 37°46' E 121°30'38810920.4
2014-Oct-23 06:29N 31°18' E 121°34'388416.7
2014-Oct-23 05:33N 37°46' E 121°27'3 3.3
2014-Oct-23 04:33N 37°46' E 121°23'4 3.4
2014-Oct-23 03:27N 37°45' E 121°19'7 8.3
2014-Oct-23 02:33N 37°42' E 121°10'3871590.3
2014-Oct-23 02:19N 31°15' E 121°31'3 4.0
2014-Oct-23 01:28N 31°18' E 121°34'5 5.4
2014-Oct-23 00:31N 31°22' E 121°30'380270.1
2014-Oct-22 23:07N 37°42' E 121°09'0 0.0
2014-Oct-22 22:25N 37°42' E 121°09'38511538.3
2014-Oct-22 22:23N 31°18' E 121°34'0 0.0
2014-Oct-22 21:25N 31°18' E 121°34'38562939.3
2014-Oct-22 21:25N 37°42' E 121°09'385422.4
2014-Oct-22 20:30N 31°18' E 121°34'38510178.6
2014-Oct-22 20:28N 37°42' E 121°09'385409.2
2014-Oct-22 19:31N 31°18' E 121°34'3892350.1
2014-Oct-22 19:21N 37°46' E 121°16'389485.7
2014-Oct-22 18:33N 31°18' E 121°34'38923322.6
2014-Oct-22 18:32N 37°46' E 121°18'3 3.5
2014-Oct-22 17:33N 37°47' E 121°22'3892786.7
2014-Oct-22 17:25N 31°18' E 121°34'392455.3
2014-Oct-22 16:33N 37°49' E 121°26'365159.1
2014-Oct-22 14:16N 31°44' E 121°04'37337.9
2014-Oct-22 14:09N 31°18' E 121°34'0 0.0
2014-Oct-22 13:33N 31°18' E 121°34'37761.8
2014-Oct-22 13:30N 31°44' E 121°04'3736.5
2014-Oct-22 12:30N 31°18' E 121°34'0 0.0
2014-Oct-22 11:11N 31°18' E 121°34'0 0.0
2014-Oct-22 10:31N 31°18' E 121°34'52207.6
2014-Oct-22 10:16N 31°56' E 120°52'4 5.9
2014-Oct-22 09:31N 31°59' E 120°50'563421.1
2014-Oct-22 09:30N 31°18' E 121°34'396417.5
2014-Oct-22 08:33N 37°54' E 121°30'39611790.6
2014-Oct-22 08:31N 31°18' E 121°34'0 0.0
2014-Oct-22 07:33N 31°18' E 121°34'394337.6
2014-Oct-22 06:23N 37°52' E 121°30'3942377.7
2014-Oct-22 06:13N 31°18' E 121°34'0 0.0
2014-Oct-22 05:22N 31°18' E 121°34'0 0.0
2014-Oct-22 01:33N 31°18' E 121°34'390303.7
2014-Oct-22 00:16N 37°47' E 121°14'390536.5
2014-Oct-21 23:32N 31°18' E 121°34'38526161.3
2014-Oct-21 23:31N 37°42' E 121°10'385380.1
2014-Oct-21 22:31N 31°18' E 121°34'3855583.0
2014-Oct-21 22:26N 37°42' E 121°09'385428.5
2014-Oct-21 21:33N 31°18' E 121°34'0 0.0
2014-Oct-21 20:30N 31°18' E 121°34'  
Track history (hours):
 
Tides and Currents Weather Stations Pressure Air Temp Water Temp Dewpoint Dewpoint Depression Visibility Wind Speed Wind Dir Waves Ship Positions

Spaceon02064

Last reported at 2014-Oct-31 20:23 UTC. Time now 2014-Oct-31 20:46 UTC.
Position N 30°01' E 121°56'.

Length 6 m.

Type: Ship. MMSI: 200902064.

Date/timePositionNaut miles runAvg speedWind from/ knotsBaromVisibWave heightAir tempDewpointWater temp
2014-Oct-31 20:23N 30°01' E 121°56'462234.8
2014-Oct-31 18:25N 37°42' E 121°09'5 5.7
2014-Oct-31 17:33N 37°43' E 121°15'3 3.1
2014-Oct-31 16:33N 37°42' E 121°19'2 2.2
2014-Oct-31 15:27N 37°43' E 121°16'2 1.9
2014-Oct-31 14:31N 37°43' E 121°18'3 3.0
2014-Oct-31 13:33N 37°42' E 121°21'346916.9
2014-Oct-31 13:11N 31°59' E 120°27'345539.8
2014-Oct-31 12:32N 37°41' E 121°25'34669138.8
2014-Oct-31 12:32N 31°59' E 120°26'346353.4
2014-Oct-31 11:33N 37°41' E 121°28'4 3.8
2014-Oct-31 10:33N 37°41' E 121°24'4 3.8
2014-Oct-31 09:27N 37°42' E 121°18'8 8.0
2014-Oct-31 08:30N 37°42' E 121°09'782379.2
2014-Oct-31 06:27N 24°48' E 118°54'8 7.6
2014-Oct-31 05:25N 24°47' E 118°46'0 0.0
2014-Oct-31 04:33N 24°47' E 118°46'3571038.0
2014-Oct-31 04:12N 30°01' E 121°56'357543.3
2014-Oct-31 03:33N 24°47' E 118°46'0 0.0
2014-Oct-31 02:19N 24°47' E 118°46'0 0.0
2014-Oct-31 01:13N 24°47' E 118°46'785736.1
2014-Oct-31 00:09N 37°42' E 121°09'0 0.0
2014-Oct-30 23:27N 37°42' E 121°09'7853342.3
2014-Oct-30 23:13N 24°47' E 118°46'7851179.2
2014-Oct-30 22:33N 37°42' E 121°09'2 1.6
2014-Oct-30 21:33N 37°42' E 121°11'4 4.1
2014-Oct-30 20:33N 37°42' E 121°16'7865763.0
2014-Oct-30 20:25N 24°47' E 118°46'4135128.2
2014-Oct-30 20:20N 31°14' E 121°30'388501.1
2014-Oct-30 19:33N 37°42' E 121°21'7863209.2
2014-Oct-30 19:19N 24°47' E 118°46'7871042.5
2014-Oct-30 18:33N 37°41' E 121°26'381114428.1
2014-Oct-30 18:33N 31°20' E 121°33'381382.8
2014-Oct-30 17:34N 37°41' E 121°30'37997397.5
2014-Oct-30 17:33N 31°23' E 121°30'42210050.6
2014-Oct-30 17:31N 24°47' E 118°46'787823.9
2014-Oct-30 16:33N 37°42' E 121°26'376135326.3
2014-Oct-30 16:33N 31°26' E 121°29'4241358.8
2014-Oct-30 16:15N 24°47' E 118°46'7861134.0
2014-Oct-30 15:33N 37°42' E 121°21'2 2.1
2014-Oct-30 14:32N 37°41' E 121°19'3481954.5
2014-Oct-30 14:21N 31°58' E 120°04'4 5.5
2014-Oct-30 13:33N 31°57' E 120°09'3481252480.5
2014-Oct-30 13:33N 37°40' E 121°22'3 3.1
2014-Oct-30 12:33N 37°39' E 121°26'34783251.4
2014-Oct-30 12:33N 31°57' E 120°16'347348.0
2014-Oct-30 11:33N 37°38' E 121°30'343137162.0
2014-Oct-30 11:33N 31°60' E 120°23'343344.3
2014-Oct-30 10:33N 37°39' E 121°26'34038252.7
2014-Oct-30 10:33N 32°02' E 120°29'7 6.7
2014-Oct-30 09:33N 32°00' E 120°37'3411229156.2
2014-Oct-30 09:33N 37°40' E 121°22'340338.6
2014-Oct-30 08:33N 32°01' E 120°45'3404226.4
2014-Oct-30 08:28N 37°40' E 121°19'78532846.5
2014-Oct-30 08:27N 24°47' E 118°46'447490.8
2014-Oct-30 07:32N 32°01' E 120°49'34124533.3
2014-Oct-30 07:31N 37°40' E 121°19'341345.7
2014-Oct-30 06:32N 32°01' E 120°49'4474984.1
2014-Oct-30 06:27N 24°47' E 118°46'447501.7
2014-Oct-30 05:33N 32°01' E 120°49'44753661.4
2014-Oct-30 05:33N 24°47' E 118°46'447451.7
2014-Oct-30 04:33N 32°01' E 120°49'4474055.1
2014-Oct-30 04:27N 24°47' E 118°46'447498.1
2014-Oct-30 03:33N 32°01' E 120°49'348952.2
2014-Oct-30 03:11N 37°48' E 121°11'348541.6
2014-Oct-30 02:33N 32°01' E 120°49'34113968.3
2014-Oct-30 02:31N 37°42' E 121°09'341347.3
2014-Oct-30 01:32N 32°01' E 120°49'1 0.7
2014-Oct-30 00:33N 32°00' E 120°49'343274.0
2014-Oct-29 23:18N 37°43' E 121°11'810.2
2014-Oct-29 22:33N 37°47' E 121°19'360339.5
2014-Oct-29 21:29N 31°47' E 121°01'3641225.5
2014-Oct-29 21:12N 37°50' E 121°27'367571.3
2014-Oct-29 20:33N 31°43' E 121°08'367364.2
2014-Oct-29 19:33N 37°50' E 121°35'37223474.2
2014-Oct-29 19:32N 31°39' E 121°14'372362.9
2014-Oct-29 18:30N 37°51' E 121°36'396387.3
2014-Oct-29 17:29N 31°14' E 121°29'3961971.5
2014-Oct-29 17:17N 37°51' E 121°36'384405.2
2014-Oct-29 16:20N 31°27' E 121°29'6 7.0
2014-Oct-29 15:29N 31°21' E 121°31'388383.2
2014-Oct-29 14:29N 37°49' E 121°41'3838104.4
2014-Oct-29 14:26N 31°26' E 121°29'374387.8
2014-Oct-29 13:28N 37°40' E 121°38'2 1.6
2014-Oct-29 12:30N 37°40' E 121°40'3621235.6
2014-Oct-29 12:13N 31°39' E 121°14'6 7.0
2014-Oct-29 11:22N 31°42' E 121°08'26122.7
2014-Oct-29 11:09N 31°24' E 121°31'3765009.2
2014-Oct-29 11:05N 37°40' E 121°42'2 3.1
2014-Oct-29 10:33N 37°39' E 121°40'3751923.1
2014-Oct-29 10:21N 31°24' E 121°31'375466.2
2014-Oct-29 09:33N 37°40' E 121°35'4 3.5
2014-Oct-29 08:33N 37°41' E 121°31'4 3.6
2014-Oct-29 07:33N 37°41' E 121°26'4 3.7
2014-Oct-29 06:33N 37°41' E 121°22'37713438.7
2014-Oct-29 06:31N 31°24' E 121°31'4232460.3
2014-Oct-29 06:21N 24°47' E 118°46'420528.3
2014-Oct-29 05:33N 31°22' E 121°28'380273954.5
2014-Oct-29 05:33N 37°42' E 121°13'381381.1
2014-Oct-29 04:33N 31°22' E 121°28'0 0.0
2014-Oct-29 03:33N 31°22' E 121°28'0 0.0
2014-Oct-29 02:33N 31°22' E 121°28'56151.2
2014-Oct-29 02:11N 31°60' E 120°39'5689.4
2014-Oct-29 01:33N 31°22' E 121°28'614479.0
2014-Oct-29 01:33N 32°01' E 120°33'6161.8
2014-Oct-29 00:33N 31°22' E 121°28'64114665.6
2014-Oct-29 00:33N 31°59' E 120°27'6463.8
2014-Oct-28 23:33N 31°22' E 121°28'381788.5
2014-Oct-28 23:04N 37°42' E 121°11'381736.0
2014-Oct-28 22:33N 31°22' E 121°28'38125913.1
2014-Oct-28 22:33N 37°43' E 121°15'381380.5
2014-Oct-28 21:32N 31°22' E 121°28'38042789.0
2014-Oct-28 21:32N 37°42' E 121°16'4 4.1
2014-Oct-28 20:33N 37°41' E 121°21'37991012.7
2014-Oct-28 20:33N 31°22' E 121°28'0 0.0
2014-Oct-28 19:33N 31°22' E 121°28'37840046.6
2014-Oct-28 19:33N 37°40' E 121°26'4 4.1
2014-Oct-28 18:33N 37°39' E 121°31'37823844.9
2014-Oct-28 18:32N 31°22' E 121°28'0 0.0
2014-Oct-28 17:33N 31°22' E 121°28'377271709.4
2014-Oct-28 17:33N 37°39' E 121°36'3 3.4
2014-Oct-28 16:33N 37°40' E 121°32'37937857.3
2014-Oct-28 16:33N 31°22' E 121°28'0 0.0
2014-Oct-28 15:33N 31°22' E 121°28'3851223.5
2014-Oct-28 15:14N 37°47' E 121°30'385567.0
2014-Oct-28 14:33N 31°22' E 121°28'38699221.1
2014-Oct-28 14:33N 37°47' E 121°28'386387.6
2014-Oct-28 13:33N 31°22' E 121°28'0 0.0
2014-Oct-28 12:33N 31°22' E 121°28'0 0.0
2014-Oct-28 11:33N 31°22' E 121°28'0 0.1
2014-Oct-28 10:32N 31°22' E 121°28'0 0.0
2014-Oct-28 09:33N 31°22' E 121°28'77470.9
2014-Oct-28 09:24N 31°57' E 120°08'7791.9
2014-Oct-28 08:33N 31°22' E 121°28'724693.5
2014-Oct-28 08:32N 31°57' E 120°14'7272.8
2014-Oct-28 07:33N 31°22' E 121°28'68122621.9
2014-Oct-28 07:33N 31°58' E 120°20'3593263.0
2014-Oct-28 07:27N 37°53' E 121°20'392440.6
2014-Oct-28 06:33N 31°22' E 121°28'65117705.8
2014-Oct-28 06:33N 31°58' E 120°24'357931.6
2014-Oct-28 06:10N 37°53' E 121°18'392635.4
2014-Oct-28 05:33N 31°22' E 121°28'0 0.0
2014-Oct-28 04:33N 31°22' E 121°28'3891192.6
2014-Oct-28 04:14N 37°50' E 121°18'389567.6
2014-Oct-28 03:33N 31°22' E 121°28'4211.7
2014-Oct-28 03:32N 31°21' E 121°32'3844420.3
2014-Oct-28 03:26N 37°45' E 121°12'383434.2
2014-Oct-28 02:33N 31°22' E 121°28'38026331.2
2014-Oct-28 02:33N 37°42' E 121°09'3451967.7
2014-Oct-28 02:22N 31°58' E 120°27'6478.5
2014-Oct-28 01:33N 31°22' E 121°28'38025834.3
2014-Oct-28 01:33N 37°42' E 121°09'380386.1
2014-Oct-28 00:33N 31°22' E 121°28'38223282.7
2014-Oct-28 00:32N 37°43' E 121°13'382383.5
2014-Oct-27 23:33N 31°22' E 121°28'0 0.0
2014-Oct-27 22:32N 31°22' E 121°28'3831145.2
2014-Oct-27 22:12N 37°44' E 121°15'383579.6
2014-Oct-27 21:33N 31°22' E 121°28'3836793.5
2014-Oct-27 21:29N 37°45' E 121°18'3441460.2
2014-Oct-27 21:15N 32°02' E 120°45'5478.1
2014-Oct-27 20:33N 31°22' E 121°28'38441930.6
2014-Oct-27 20:33N 37°46' E 121°15'4 4.0
2014-Oct-27 19:33N 37°46' E 121°20'384153637.3
2014-Oct-27 19:33N 31°22' E 121°28'384387.5
2014-Oct-27 18:33N 37°45' E 121°25'38417701.5
2014-Oct-27 18:32N 31°22' E 121°28'383391.7
2014-Oct-27 17:33N 37°45' E 121°30'38335361.3
2014-Oct-27 17:33N 31°22' E 121°28'383386.9
2014-Oct-27 16:33N 37°44' E 121°35'38372503.8
2014-Oct-27 16:33N 31°22' E 121°28'0 0.1
2014-Oct-27 15:33N 31°22' E 121°28'38238150.6
2014-Oct-27 15:33N 37°43' E 121°34'3 3.2
2014-Oct-27 14:32N 37°43' E 121°30'382196228.3
2014-Oct-27 14:32N 31°22' E 121°28'0 0.0
2014-Oct-27 13:33N 31°22' E 121°28'382344124.8
2014-Oct-27 13:33N 37°44' E 121°25'4 3.7
2014-Oct-27 12:33N 37°44' E 121°21'38381047.2
2014-Oct-27 12:33N 31°22' E 121°28'0 0.0
2014-Oct-27 11:33N 31°22' E 121°28'3829046.3
2014-Oct-27 11:31N 37°43' E 121°14'382396.4
2014-Oct-27 10:33N 31°22' E 121°28'68287.6
2014-Oct-27 10:19N 31°59' E 120°21'6890.1
2014-Oct-27 09:33N 31°22' E 121°28'641341.7
2014-Oct-27 09:31N 32°02' E 120°29'6467.0
2014-Oct-27 08:33N 31°21' E 121°27'0 0.0
2014-Oct-27 07:32N 31°21' E 121°27'0 0.0
2014-Oct-27 06:33N 31°21' E 121°27'65780.9
2014-Oct-27 06:28N 31°58' E 120°24'7 8.1
2014-Oct-27 05:33N 31°56' E 120°16'709268.3
2014-Oct-27 05:33N 31°21' E 121°26'0 0.0
2014-Oct-27 04:31N 31°21' E 121°26'0 0.1
2014-Oct-27 03:33N 31°21' E 121°26'4171501.3
2014-Oct-27 03:16N 24°46' E 118°54'417576.9
2014-Oct-27 02:33N 31°21' E 121°26'0 0.0
2014-Oct-27 01:33N 31°21' E 121°26'0 0.0
2014-Oct-27 00:33N 31°21' E 121°26'0 0.0
2014-Oct-26 23:29N 31°21' E 121°26'0 0.0
2014-Oct-26 22:32N 31°21' E 121°26'0 0.0
2014-Oct-26 21:27N 31°21' E 121°26'0 0.0
2014-Oct-26 20:30N 31°21' E 121°26'0 0.0
2014-Oct-26 19:33N 31°21' E 121°26'0 0.0
2014-Oct-26 18:27N 31°21' E 121°26'0 0.0
2014-Oct-26 17:31N 31°21' E 121°26'0 0.1
2014-Oct-26 16:33N 31°21' E 121°26'0 0.0
2014-Oct-26 15:28N 31°21' E 121°26'0 0.0
2014-Oct-26 13:30N 31°21' E 121°26'0 0.0
2014-Oct-26 12:33N 31°21' E 121°26'0 0.0
2014-Oct-26 11:32N 31°21' E 121°26'0 0.0
2014-Oct-26 10:23N 31°21' E 121°26'0 0.0
2014-Oct-26 09:29N 31°21' E 121°26'0 0.0
2014-Oct-26 08:31N 31°21' E 121°26'0 0.0
2014-Oct-26 07:31N 31°21' E 121°26'0 0.0
2014-Oct-26 06:33N 31°21' E 121°26'0 0.0
2014-Oct-26 05:33N 31°21' E 121°26'0 0.0
2014-Oct-26 04:33N 31°21' E 121°26'0 0.0
2014-Oct-26 03:32N 31°21' E 121°26'0 0.0
2014-Oct-26 02:24N 31°21' E 121°26'0 0.0
2014-Oct-26 00:33N 31°21' E 121°26'0 0.0
2014-Oct-25 23:33N 31°21' E 121°26'0 0.0
2014-Oct-25 22:33N 31°21' E 121°26'0 0.0
2014-Oct-25 21:22N 31°21' E 121°26'0 0.0
2014-Oct-25 20:33N 31°21' E 121°26'3812126.6
2014-Oct-25 20:23N 37°42' E 121°09'381451.8
2014-Oct-25 19:32N 31°21' E 121°26'3811841.1
2014-Oct-25 19:20N 37°42' E 121°09'381494.5
2014-Oct-25 18:33N 31°21' E 121°26'38165396.7
2014-Oct-25 18:33N 37°42' E 121°14'364887.3
2014-Oct-25 18:08N 31°38' E 121°15'363623.7
2014-Oct-25 17:34N 37°42' E 121°20'38115752.4
2014-Oct-25 17:32N 31°21' E 121°26'379385.2
2014-Oct-25 16:33N 37°40' E 121°25'3798469.5
2014-Oct-25 16:30N 31°21' E 121°26'378395.7
2014-Oct-25 15:33N 37°39' E 121°23'3787603.6
2014-Oct-25 15:30N 31°21' E 121°26'377396.7
2014-Oct-25 14:33N 37°38' E 121°25'3778592.2
2014-Oct-25 14:30N 31°21' E 121°26'376390.2
2014-Oct-25 13:33N 37°37' E 121°27'37612548.6
2014-Oct-25 13:31N 31°21' E 121°26'0 0.0
2014-Oct-25 12:33N 31°21' E 121°26'37667750.6
2014-Oct-25 12:33N 37°37' E 121°27'3471911.8
2014-Oct-25 12:22N 31°57' E 120°03'8096.8
2014-Oct-25 11:33N 31°21' E 121°26'3824914.6
2014-Oct-25 11:28N 37°43' E 121°30'351385.7
2014-Oct-25 10:33N 31°57' E 120°16'70250704.7
2014-Oct-25 10:33N 31°21' E 121°26'38527181.0
2014-Oct-25 10:33N 37°46' E 121°28'351356.9
2014-Oct-25 09:33N 31°58' E 120°25'6476922.8
2014-Oct-25 09:33N 31°21' E 121°26'383275883.8
2014-Oct-25 09:33N 37°44' E 121°26'38124070.8
2014-Oct-25 09:32N 31°23' E 121°37'6 6.2
2014-Oct-25 08:33N 31°22' E 121°30'38276323.6
2014-Oct-25 08:33N 37°44' E 121°24'383275702.5
2014-Oct-25 08:33N 31°21' E 121°26'0 0.0
2014-Oct-25 07:33N 31°21' E 121°26'8456.5
2014-Oct-25 07:32N 31°17' E 121°34'38721117.2
2014-Oct-25 07:31N 37°44' E 121°28'1 0.6
2014-Oct-25 06:33N 37°45' E 121°28'38492113.4
2014-Oct-25 06:33N 31°21' E 121°26'824.7
2014-Oct-25 06:14N 31°17' E 121°34'811.4
2014-Oct-25 05:33N 31°21' E 121°26'38398508.6
2014-Oct-25 05:33N 37°44' E 121°25'3871873.1
2014-Oct-25 05:20N 31°17' E 121°34'7 8.8
2014-Oct-25 04:33N 31°22' E 121°28'3834333.7
2014-Oct-25 04:28N 37°44' E 121°27'3 3.0
2014-Oct-25 03:29N 37°46' E 121°25'3822560.8
2014-Oct-25 03:20N 31°24' E 121°31'384447.0
2014-Oct-25 02:28N 37°48' E 121°24'38451208.0
2014-Oct-25 02:28N 31°24' E 121°31'383418.0
2014-Oct-25 01:33N 37°48' E 121°28'38314085.0
2014-Oct-25 01:31N 31°24' E 121°31'383377.9
2014-Oct-25 00:30N 37°48' E 121°23'3803521.6
2014-Oct-25 00:24N 31°28' E 121°26'378175.7
2014-Oct-24 22:15N 37°46' E 121°09'3695922.7
2014-Oct-24 22:11N 31°37' E 121°15'4 6.4
2014-Oct-24 21:31N 31°40' E 121°12'5 5.4
2014-Oct-24 20:32N 31°43' E 121°07'4 4.0
2014-Oct-24 19:30N 31°45' E 121°02'0 0.1
2014-Oct-24 18:11N 31°46' E 121°02'0 0.1
2014-Oct-24 17:33N 31°46' E 121°02'0 0.1
2014-Oct-24 16:31N 31°46' E 121°02'39186.1
2014-Oct-24 16:19N 31°17' E 121°34'0 0.0
2014-Oct-24 15:29N 31°17' E 121°34'3852054.7
2014-Oct-24 15:17N 37°42' E 121°09'35529738.8
2014-Oct-24 15:17N 31°46' E 120°59'165226.3
2014-Oct-24 14:33N 34°29' E 120°27'19528095.2
2014-Oct-24 14:33N 37°40' E 121°15'8 8.4
2014-Oct-24 13:33N 37°43' E 121°25'1991325.0
2014-Oct-24 13:24N 34°29' E 120°27'152445.9
2014-Oct-24 13:04N 31°58' E 120°50'3 6.2
2014-Oct-24 12:33N 32°00' E 120°47'344247336.3
2014-Oct-24 12:33N 37°42' E 121°28'3 3.4
2014-Oct-24 11:32N 37°42' E 121°32'34546036.8
2014-Oct-24 11:32N 31°60' E 120°39'6 5.9
2014-Oct-24 10:33N 32°01' E 120°33'34682958.5
2014-Oct-24 10:33N 37°43' E 121°32'2011663.2
2014-Oct-24 10:26N 34°29' E 120°28'147168.2
2014-Oct-24 09:33N 32°02' E 120°27'34695711.5
2014-Oct-24 09:33N 37°44' E 121°28'3 3.4
2014-Oct-24 08:33N 37°44' E 121°24'34878305.2
2014-Oct-24 08:33N 31°60' E 120°23'2 1.7
2014-Oct-24 07:33N 31°59' E 120°21'34996577.5
2014-Oct-24 07:33N 37°44' E 121°19'3881773.0
2014-Oct-24 07:20N 31°17' E 121°34'7595.9
2014-Oct-24 06:33N 31°59' E 120°21'34896413.8
2014-Oct-24 06:33N 37°44' E 121°20'348349.4
2014-Oct-24 05:33N 31°59' E 120°22'3469500.7
2014-Oct-24 05:31N 37°42' E 121°12'346358.9
2014-Oct-24 04:33N 31°59' E 120°22'74535.1
2014-Oct-24 04:25N 31°18' E 121°34'7587.2
2014-Oct-24 03:33N 31°58' E 120°19'7 6.6
2014-Oct-24 02:33N 31°56' E 120°11'80178.8
2014-Oct-24 02:06N 31°18' E 121°34'86156.1
2014-Oct-24 01:33N 31°57' E 120°04'3488308.2
2014-Oct-24 01:30N 37°42' E 121°09'0 0.0
2014-Oct-24 00:33N 37°42' E 121°09'0 0.0
2014-Oct-23 23:33N 37°42' E 121°09'0 0.0
2014-Oct-23 22:12N 37°42' E 121°09'5 7.9
2014-Oct-23 21:32N 37°42' E 121°15'38434593.5
2014-Oct-23 21:31N 31°18' E 121°34'383397.2
2014-Oct-23 20:33N 37°41' E 121°19'3835560.9
2014-Oct-23 20:29N 31°18' E 121°34'382410.4
2014-Oct-23 19:33N 37°40' E 121°24'38229279.4
2014-Oct-23 19:32N 31°18' E 121°34'382387.0
2014-Oct-23 18:33N 37°40' E 121°24'3821367.3
2014-Oct-23 18:16N 31°18' E 121°34'383531.8
2014-Oct-23 17:33N 37°40' E 121°24'38320571.8
2014-Oct-23 17:32N 31°18' E 121°34'384390.8
2014-Oct-23 16:33N 37°41' E 121°20'3843097.7
2014-Oct-23 16:26N 31°18' E 121°34'0 0.0
2014-Oct-23 15:33N 31°18' E 121°34'3863461.0
2014-Oct-23 15:26N 37°43' E 121°16'386431.3
2014-Oct-23 14:33N 31°18' E 121°34'3858155.9
2014-Oct-23 14:30N 37°43' E 121°18'3 3.5
2014-Oct-23 13:32N 37°42' E 121°23'3855896.1
2014-Oct-23 13:28N 31°18' E 121°34'385418.8
2014-Oct-23 12:33N 37°42' E 121°27'3 3.2
2014-Oct-23 11:33N 37°42' E 121°31'1 0.6
2014-Oct-23 10:32N 37°42' E 121°31'3 3.3
2014-Oct-23 09:33N 37°39' E 121°31'1 1.2
2014-Oct-23 08:33N 37°40' E 121°31'383382.8
2014-Oct-23 07:33N 31°18' E 121°34'3831378274.1
2014-Oct-23 07:33N 37°40' E 121°31'5 5.3
2014-Oct-23 06:31N 37°46' E 121°30'38810920.4
2014-Oct-23 06:29N 31°18' E 121°34'388416.7
2014-Oct-23 05:33N 37°46' E 121°27'3 3.3
2014-Oct-23 04:33N 37°46' E 121°23'4 3.4
2014-Oct-23 03:27N 37°45' E 121°19'7 8.3
2014-Oct-23 02:33N 37°42' E 121°10'3871590.3
2014-Oct-23 02:19N 31°15' E 121°31'3 4.0
2014-Oct-23 01:28N 31°18' E 121°34'5 5.4
2014-Oct-23 00:31N 31°22' E 121°30'380270.1
2014-Oct-22 23:07N 37°42' E 121°09'0 0.0
2014-Oct-22 22:25N 37°42' E 121°09'38511538.3
2014-Oct-22 22:23N 31°18' E 121°34'0 0.0
2014-Oct-22 21:25N 31°18' E 121°34'38562939.3
2014-Oct-22 21:25N 37°42' E 121°09'385422.4
2014-Oct-22 20:30N 31°18' E 121°34'38510178.6
2014-Oct-22 20:28N 37°42' E 121°09'385409.2
2014-Oct-22 19:31N 31°18' E 121°34'3892350.1
2014-Oct-22 19:21N 37°46' E 121°16'389485.7
2014-Oct-22 18:33N 31°18' E 121°34'38923322.6
2014-Oct-22 18:32N 37°46' E 121°18'3 3.5
2014-Oct-22 17:33N 37°47' E 121°22'3892786.7
2014-Oct-22 17:25N 31°18' E 121°34'392455.3
2014-Oct-22 16:33N 37°49' E 121°26'365159.1
2014-Oct-22 14:16N 31°44' E 121°04'37337.9
2014-Oct-22 14:09N 31°18' E 121°34'0 0.0
2014-Oct-22 13:33N 31°18' E 121°34'37761.8
2014-Oct-22 13:30N 31°44' E 121°04'3736.5
2014-Oct-22 12:30N 31°18' E 121°34'0 0.0
2014-Oct-22 11:11N 31°18' E 121°34'0 0.0
2014-Oct-22 10:31N 31°18' E 121°34'52207.6
2014-Oct-22 10:16N 31°56' E 120°52'4 5.9
2014-Oct-22 09:31N 31°59' E 120°50'563421.1
2014-Oct-22 09:30N 31°18' E 121°34'396417.5
2014-Oct-22 08:33N 37°54' E 121°30'39611790.6
2014-Oct-22 08:31N 31°18' E 121°34'0 0.0
2014-Oct-22 07:33N 31°18' E 121°34'394337.6
2014-Oct-22 06:23N 37°52' E 121°30'3942377.7
2014-Oct-22 06:13N 31°18' E 121°34'0 0.0
2014-Oct-22 05:22N 31°18' E 121°34'0 0.0
2014-Oct-22 01:33N 31°18' E 121°34'390303.7
2014-Oct-22 00:16N 37°47' E 121°14'390536.5
2014-Oct-21 23:32N 31°18' E 121°34'38526161.3
2014-Oct-21 23:31N 37°42' E 121°10'385380.1
2014-Oct-21 22:31N 31°18' E 121°34'3855583.0
2014-Oct-21 22:26N 37°42' E 121°09'385428.5
2014-Oct-21 21:33N 31°18' E 121°34'0 0.0
2014-Oct-21 20:30N 31°18' E 121°34'  

Dump ship's entire track history